sensor_id;sensor_type;location;lat;lon;timestamp;P1;durP1;ratioP1;P2;durP2;ratioP2
20379;SDS011;10349;48.666;8.948;2023-04-03T00:00:59;3.60;;;3.30;;
20379;SDS011;10349;48.666;8.948;2023-04-03T00:03:24;4.43;;;4.03;;
20379;SDS011;10349;48.666;8.948;2023-04-03T00:05:50;3.77;;;3.47;;
20379;SDS011;10349;48.666;8.948;2023-04-03T00:08:16;4.00;;;3.67;;
20379;SDS011;10349;48.666;8.948;2023-04-03T00:10:41;16.07;;;3.53;;
20379;SDS011;10349;48.666;8.948;2023-04-03T00:13:07;3.53;;;3.23;;
20379;SDS011;10349;48.666;8.948;2023-04-03T00:15:34;3.00;;;2.80;;
20379;SDS011;10349;48.666;8.948;2023-04-03T00:18:01;3.77;;;3.50;;
20379;SDS011;10349;48.666;8.948;2023-04-03T00:20:30;5.47;;;4.03;;
20379;SDS011;10349;48.666;8.948;2023-04-03T00:22:56;3.33;;;3.13;;
20379;SDS011;10349;48.666;8.948;2023-04-03T00:25:22;5.80;;;3.40;;
20379;SDS011;10349;48.666;8.948;2023-04-03T00:27:48;4.03;;;3.70;;
20379;SDS011;10349;48.666;8.948;2023-04-03T00:30:16;3.13;;;2.90;;
20379;SDS011;10349;48.666;8.948;2023-04-03T00:32:43;4.03;;;3.57;;
20379;SDS011;10349;48.666;8.948;2023-04-03T00:35:09;4.23;;;3.37;;
20379;SDS011;10349;48.666;8.948;2023-04-03T00:37:35;3.73;;;3.47;;
20379;SDS011;10349;48.666;8.948;2023-04-03T00:40:02;7.17;;;3.80;;
20379;SDS011;10349;48.666;8.948;2023-04-03T00:42:28;4.77;;;3.50;;
20379;SDS011;10349;48.666;8.948;2023-04-03T00:47:26;3.20;;;3.00;;
20379;SDS011;10349;48.666;8.948;2023-04-03T00:49:53;3.37;;;3.10;;
20379;SDS011;10349;48.666;8.948;2023-04-03T00:52:19;6.07;;;3.50;;
20379;SDS011;10349;48.666;8.948;2023-04-03T00:54:48;4.10;;;3.70;;
20379;SDS011;10349;48.666;8.948;2023-04-03T00:57:17;10.33;;;4.47;;
20379;SDS011;10349;48.666;8.948;2023-04-03T00:59:44;3.23;;;2.93;;
20379;SDS011;10349;48.666;8.948;2023-04-03T01:02:14;5.33;;;3.97;;
20379;SDS011;10349;48.666;8.948;2023-04-03T01:04:40;4.17;;;3.53;;
20379;SDS011;10349;48.666;8.948;2023-04-03T01:09:39;5.23;;;3.60;;
20379;SDS011;10349;48.666;8.948;2023-04-03T01:12:13;4.50;;;3.70;;
20379;SDS011;10349;48.666;8.948;2023-04-03T01:14:51;4.07;;;3.70;;
20379;SDS011;10349;48.666;8.948;2023-04-03T01:22:53;3.37;;;3.07;;
20379;SDS011;10349;48.666;8.948;2023-04-03T01:25:44;6.90;;;3.40;;
20379;SDS011;10349;48.666;8.948;2023-04-03T01:28:17;5.17;;;3.50;;
20379;SDS011;10349;48.666;8.948;2023-04-03T01:30:51;4.93;;;4.50;;
20379;SDS011;10349;48.666;8.948;2023-04-03T01:33:24;3.67;;;3.47;;
20379;SDS011;10349;48.666;8.948;2023-04-03T01:35:50;3.63;;;3.33;;
20379;SDS011;10349;48.666;8.948;2023-04-03T01:38:15;3.83;;;3.27;;
20379;SDS011;10349;48.666;8.948;2023-04-03T01:40:41;5.57;;;3.50;;
20379;SDS011;10349;48.666;8.948;2023-04-03T01:43:07;4.63;;;4.10;;
20379;SDS011;10349;48.666;8.948;2023-04-03T01:45:33;3.87;;;3.57;;
20379;SDS011;10349;48.666;8.948;2023-04-03T01:47:59;4.00;;;3.70;;
20379;SDS011;10349;48.666;8.948;2023-04-03T01:50:25;5.20;;;4.07;;
20379;SDS011;10349;48.666;8.948;2023-04-03T01:52:52;3.70;;;3.50;;
20379;SDS011;10349;48.666;8.948;2023-04-03T01:55:17;14.13;;;4.50;;
20379;SDS011;10349;48.666;8.948;2023-04-03T01:57:43;4.57;;;4.17;;
20379;SDS011;10349;48.666;8.948;2023-04-03T02:00:09;5.60;;;3.37;;
20379;SDS011;10349;48.666;8.948;2023-04-03T02:02:41;3.63;;;3.30;;
20379;SDS011;10349;48.666;8.948;2023-04-03T02:05:07;3.90;;;3.40;;
20379;SDS011;10349;48.666;8.948;2023-04-03T02:07:33;4.03;;;3.70;;
20379;SDS011;10349;48.666;8.948;2023-04-03T02:09:58;3.17;;;2.97;;
20379;SDS011;10349;48.666;8.948;2023-04-03T02:12:24;3.93;;;2.90;;
20379;SDS011;10349;48.666;8.948;2023-04-03T02:14:50;3.00;;;2.80;;
20379;SDS011;10349;48.666;8.948;2023-04-03T02:17:16;4.30;;;2.40;;
20379;SDS011;10349;48.666;8.948;2023-04-03T02:19:42;4.03;;;3.73;;
20379;SDS011;10349;48.666;8.948;2023-04-03T02:22:09;3.97;;;3.67;;
20379;SDS011;10349;48.666;8.948;2023-04-03T02:24:35;4.93;;;3.50;;
20379;SDS011;10349;48.666;8.948;2023-04-03T02:27:01;5.90;;;4.47;;
20379;SDS011;10349;48.666;8.948;2023-04-03T02:29:27;6.57;;;3.40;;
20379;SDS011;10349;48.666;8.948;2023-04-03T02:31:53;4.07;;;3.67;;
20379;SDS011;10349;48.666;8.948;2023-04-03T02:34:20;4.67;;;4.27;;
20379;SDS011;10349;48.666;8.948;2023-04-03T02:36:46;4.67;;;3.83;;
20379;SDS011;10349;48.666;8.948;2023-04-03T02:39:13;5.70;;;3.20;;
20379;SDS011;10349;48.666;8.948;2023-04-03T02:41:38;4.47;;;3.80;;
20379;SDS011;10349;48.666;8.948;2023-04-03T02:44:10;4.03;;;3.63;;
20379;SDS011;10349;48.666;8.948;2023-04-03T02:46:36;3.90;;;3.60;;
20379;SDS011;10349;48.666;8.948;2023-04-03T02:49:02;4.00;;;3.77;;
20379;SDS011;10349;48.666;8.948;2023-04-03T02:51:30;6.03;;;3.67;;
20379;SDS011;10349;48.666;8.948;2023-04-03T02:53:56;3.60;;;3.30;;
20379;SDS011;10349;48.666;8.948;2023-04-03T02:56:26;3.50;;;3.30;;
20379;SDS011;10349;48.666;8.948;2023-04-03T02:58:52;3.67;;;3.40;;
20379;SDS011;10349;48.666;8.948;2023-04-03T03:01:18;3.63;;;3.37;;
20379;SDS011;10349;48.666;8.948;2023-04-03T03:03:44;4.70;;;4.30;;
20379;SDS011;10349;48.666;8.948;2023-04-03T03:06:11;4.03;;;3.53;;
20379;SDS011;10349;48.666;8.948;2023-04-03T03:08:39;3.00;;;2.70;;
20379;SDS011;10349;48.666;8.948;2023-04-03T03:11:05;5.23;;;3.50;;
20379;SDS011;10349;48.666;8.948;2023-04-03T03:13:32;4.90;;;3.70;;
20379;SDS011;10349;48.666;8.948;2023-04-03T03:15:58;8.33;;;4.00;;
20379;SDS011;10349;48.666;8.948;2023-04-03T03:18:25;5.23;;;3.70;;
20379;SDS011;10349;48.666;8.948;2023-04-03T03:20:54;3.70;;;3.40;;
20379;SDS011;10349;48.666;8.948;2023-04-03T03:23:22;4.20;;;3.80;;
20379;SDS011;10349;48.666;8.948;2023-04-03T03:25:49;4.03;;;3.50;;
20379;SDS011;10349;48.666;8.948;2023-04-03T03:28:19;4.33;;;4.00;;
20379;SDS011;10349;48.666;8.948;2023-04-03T03:30:45;3.43;;;2.90;;
20379;SDS011;10349;48.666;8.948;2023-04-03T03:33:10;4.17;;;3.87;;
20379;SDS011;10349;48.666;8.948;2023-04-03T03:35:36;3.40;;;3.00;;
20379;SDS011;10349;48.666;8.948;2023-04-03T03:38:01;3.73;;;3.43;;
20379;SDS011;10349;48.666;8.948;2023-04-03T03:40:27;4.30;;;3.90;;
20379;SDS011;10349;48.666;8.948;2023-04-03T03:42:53;3.90;;;3.50;;
20379;SDS011;10349;48.666;8.948;2023-04-03T03:45:19;6.97;;;4.00;;
20379;SDS011;10349;48.666;8.948;2023-04-03T03:47:46;4.70;;;3.60;;
20379;SDS011;10349;48.666;8.948;2023-04-03T03:50:12;3.77;;;3.50;;
20379;SDS011;10349;48.666;8.948;2023-04-03T03:52:38;6.47;;;3.60;;
20379;SDS011;10349;48.666;8.948;2023-04-03T03:55:04;4.30;;;2.80;;
20379;SDS011;10349;48.666;8.948;2023-04-03T03:57:30;4.30;;;3.90;;
20379;SDS011;10349;48.666;8.948;2023-04-03T03:59:56;4.13;;;3.80;;
20379;SDS011;10349;48.666;8.948;2023-04-03T04:02:22;3.20;;;3.00;;
20379;SDS011;10349;48.666;8.948;2023-04-03T04:04:48;3.43;;;3.23;;
20379;SDS011;10349;48.666;8.948;2023-04-03T04:07:14;4.20;;;3.80;;
20379;SDS011;10349;48.666;8.948;2023-04-03T04:09:40;3.20;;;2.90;;
20379;SDS011;10349;48.666;8.948;2023-04-03T04:12:08;3.53;;;3.23;;
20379;SDS011;10349;48.666;8.948;2023-04-03T04:14:34;3.03;;;2.53;;
20379;SDS011;10349;48.666;8.948;2023-04-03T04:17:01;4.43;;;3.50;;
20379;SDS011;10349;48.666;8.948;2023-04-03T04:19:28;3.30;;;3.00;;
20379;SDS011;10349;48.666;8.948;2023-04-03T04:21:54;3.20;;;3.00;;
20379;SDS011;10349;48.666;8.948;2023-04-03T04:24:20;5.23;;;3.80;;
20379;SDS011;10349;48.666;8.948;2023-04-03T04:26:50;3.73;;;3.43;;
20379;SDS011;10349;48.666;8.948;2023-04-03T04:29:16;3.43;;;3.13;;
20379;SDS011;10349;48.666;8.948;2023-04-03T04:31:45;4.43;;;4.03;;
20379;SDS011;10349;48.666;8.948;2023-04-03T04:34:11;3.73;;;3.20;;
20379;SDS011;10349;48.666;8.948;2023-04-03T04:36:38;3.67;;;3.37;;
20379;SDS011;10349;48.666;8.948;2023-04-03T04:39:05;3.53;;;3.23;;
20379;SDS011;10349;48.666;8.948;2023-04-03T04:41:31;3.43;;;3.23;;
20379;SDS011;10349;48.666;8.948;2023-04-03T04:43:57;3.80;;;3.50;;
20379;SDS011;10349;48.666;8.948;2023-04-03T04:46:24;4.93;;;3.10;;
20379;SDS011;10349;48.666;8.948;2023-04-03T04:48:54;3.60;;;3.30;;
20379;SDS011;10349;48.666;8.948;2023-04-03T04:51:21;3.73;;;3.40;;
20379;SDS011;10349;48.666;8.948;2023-04-03T04:53:47;3.80;;;3.47;;
20379;SDS011;10349;48.666;8.948;2023-04-03T04:56:15;3.90;;;3.50;;
20379;SDS011;10349;48.666;8.948;2023-04-03T04:58:41;4.63;;;3.07;;
20379;SDS011;10349;48.666;8.948;2023-04-03T05:01:09;4.67;;;4.37;;
20379;SDS011;10349;48.666;8.948;2023-04-03T05:03:42;7.87;;;3.40;;
20379;SDS011;10349;48.666;8.948;2023-04-03T05:06:08;3.40;;;3.10;;
20379;SDS011;10349;48.666;8.948;2023-04-03T05:08:35;4.00;;;3.57;;
20379;SDS011;10349;48.666;8.948;2023-04-03T05:11:01;3.10;;;2.77;;
20379;SDS011;10349;48.666;8.948;2023-04-03T05:13:27;3.37;;;3.17;;
20379;SDS011;10349;48.666;8.948;2023-04-03T05:15:55;3.60;;;3.37;;
20379;SDS011;10349;48.666;8.948;2023-04-03T05:18:20;7.30;;;3.90;;
20379;SDS011;10349;48.666;8.948;2023-04-03T05:20:48;3.33;;;3.13;;
20379;SDS011;10349;48.666;8.948;2023-04-03T05:23:15;3.43;;;3.23;;
20379;SDS011;10349;48.666;8.948;2023-04-03T05:25:43;3.50;;;3.13;;
20379;SDS011;10349;48.666;8.948;2023-04-03T05:28:13;4.60;;;4.00;;
20379;SDS011;10349;48.666;8.948;2023-04-03T05:30:39;3.23;;;2.93;;
20379;SDS011;10349;48.666;8.948;2023-04-03T05:33:07;3.33;;;3.13;;
20379;SDS011;10349;48.666;8.948;2023-04-03T05:35:45;2.70;;;2.47;;
20379;SDS011;10349;48.666;8.948;2023-04-03T05:38:15;2.97;;;2.70;;
20379;SDS011;10349;48.666;8.948;2023-04-03T05:40:42;3.13;;;2.83;;
20379;SDS011;10349;48.666;8.948;2023-04-03T05:43:07;3.33;;;3.10;;
20379;SDS011;10349;48.666;8.948;2023-04-03T05:45:36;3.10;;;2.80;;
20379;SDS011;10349;48.666;8.948;2023-04-03T05:48:02;2.63;;;2.47;;
20379;SDS011;10349;48.666;8.948;2023-04-03T05:50:29;2.37;;;2.17;;
20379;SDS011;10349;48.666;8.948;2023-04-03T05:52:57;2.57;;;2.37;;
20379;SDS011;10349;48.666;8.948;2023-04-03T05:55:28;2.70;;;2.20;;
20379;SDS011;10349;48.666;8.948;2023-04-03T05:57:55;2.97;;;2.77;;
20379;SDS011;10349;48.666;8.948;2023-04-03T06:00:21;2.60;;;2.40;;
20379;SDS011;10349;48.666;8.948;2023-04-03T06:02:56;2.37;;;2.27;;
20379;SDS011;10349;48.666;8.948;2023-04-03T06:05:23;4.03;;;3.03;;
20379;SDS011;10349;48.666;8.948;2023-04-03T06:07:49;2.47;;;2.27;;
20379;SDS011;10349;48.666;8.948;2023-04-03T06:10:15;3.13;;;2.93;;
20379;SDS011;10349;48.666;8.948;2023-04-03T06:12:43;3.10;;;2.90;;
20379;SDS011;10349;48.666;8.948;2023-04-03T06:15:10;2.83;;;2.63;;
20379;SDS011;10349;48.666;8.948;2023-04-03T06:17:39;2.00;;;1.90;;
20379;SDS011;10349;48.666;8.948;2023-04-03T06:20:05;2.73;;;2.53;;
20379;SDS011;10349;48.666;8.948;2023-04-03T06:22:31;3.33;;;3.10;;
20379;SDS011;10349;48.666;8.948;2023-04-03T06:24:57;2.73;;;2.53;;
20379;SDS011;10349;48.666;8.948;2023-04-03T06:27:22;2.87;;;2.50;;
20379;SDS011;10349;48.666;8.948;2023-04-03T06:29:48;3.53;;;2.93;;
20379;SDS011;10349;48.666;8.948;2023-04-03T06:32:14;6.23;;;2.90;;
20379;SDS011;10349;48.666;8.948;2023-04-03T06:34:40;3.10;;;2.90;;
20379;SDS011;10349;48.666;8.948;2023-04-03T06:37:10;2.90;;;2.70;;
20379;SDS011;10349;48.666;8.948;2023-04-03T06:39:39;3.13;;;2.93;;
20379;SDS011;10349;48.666;8.948;2023-04-03T06:42:05;3.40;;;3.10;;
20379;SDS011;10349;48.666;8.948;2023-04-03T06:44:37;3.63;;;3.33;;
20379;SDS011;10349;48.666;8.948;2023-04-03T06:47:03;3.00;;;2.80;;
20379;SDS011;10349;48.666;8.948;2023-04-03T06:49:29;3.97;;;3.67;;
20379;SDS011;10349;48.666;8.948;2023-04-03T06:51:55;4.60;;;3.57;;
20379;SDS011;10349;48.666;8.948;2023-04-03T06:54:21;2.87;;;2.67;;
20379;SDS011;10349;48.666;8.948;2023-04-03T06:56:47;3.03;;;2.83;;
20379;SDS011;10349;48.666;8.948;2023-04-03T06:59:15;10.80;;;3.00;;
20379;SDS011;10349;48.666;8.948;2023-04-03T07:01:41;2.63;;;2.30;;
20379;SDS011;10349;48.666;8.948;2023-04-03T07:04:07;2.60;;;2.50;;
20379;SDS011;10349;48.666;8.948;2023-04-03T07:06:33;4.90;;;3.63;;
20379;SDS011;10349;48.666;8.948;2023-04-03T07:09:00;4.30;;;3.20;;
20379;SDS011;10349;48.666;8.948;2023-04-03T07:11:26;2.80;;;2.60;;
20379;SDS011;10349;48.666;8.948;2023-04-03T07:13:52;4.07;;;3.50;;
20379;SDS011;10349;48.666;8.948;2023-04-03T07:16:18;3.20;;;2.90;;
20379;SDS011;10349;48.666;8.948;2023-04-03T07:18:45;4.10;;;2.80;;
20379;SDS011;10349;48.666;8.948;2023-04-03T07:21:11;3.23;;;3.03;;
20379;SDS011;10349;48.666;8.948;2023-04-03T07:23:38;3.13;;;2.90;;
20379;SDS011;10349;48.666;8.948;2023-04-03T07:26:04;3.27;;;3.07;;
20379;SDS011;10349;48.666;8.948;2023-04-03T07:28:30;5.10;;;2.77;;
20379;SDS011;10349;48.666;8.948;2023-04-03T07:31:00;3.93;;;2.83;;
20379;SDS011;10349;48.666;8.948;2023-04-03T07:33:27;3.00;;;2.80;;
20379;SDS011;10349;48.666;8.948;2023-04-03T07:35:53;2.93;;;2.73;;
20379;SDS011;10349;48.666;8.948;2023-04-03T07:38:20;3.50;;;2.97;;
20379;SDS011;10349;48.666;8.948;2023-04-03T07:40:47;2.90;;;2.70;;
20379;SDS011;10349;48.666;8.948;2023-04-03T07:43:15;5.00;;;3.43;;
20379;SDS011;10349;48.666;8.948;2023-04-03T07:45:42;4.57;;;3.20;;
20379;SDS011;10349;48.666;8.948;2023-04-03T07:48:09;3.97;;;3.73;;
20379;SDS011;10349;48.666;8.948;2023-04-03T07:50:35;3.33;;;3.07;;
20379;SDS011;10349;48.666;8.948;2023-04-03T07:53:03;3.27;;;2.97;;
20379;SDS011;10349;48.666;8.948;2023-04-03T07:55:31;3.37;;;3.17;;
20379;SDS011;10349;48.666;8.948;2023-04-03T07:57:57;3.77;;;3.47;;
20379;SDS011;10349;48.666;8.948;2023-04-03T08:00:22;3.90;;;3.60;;
20379;SDS011;10349;48.666;8.948;2023-04-03T08:02:49;4.20;;;3.13;;
20379;SDS011;10349;48.666;8.948;2023-04-03T08:05:19;2.70;;;2.50;;
20379;SDS011;10349;48.666;8.948;2023-04-03T08:07:46;6.10;;;3.13;;
20379;SDS011;10349;48.666;8.948;2023-04-03T08:10:12;2.80;;;2.60;;
20379;SDS011;10349;48.666;8.948;2023-04-03T08:12:39;3.60;;;3.30;;
20379;SDS011;10349;48.666;8.948;2023-04-03T08:15:05;3.37;;;3.17;;
20379;SDS011;10349;48.666;8.948;2023-04-03T08:17:33;3.40;;;3.10;;
20379;SDS011;10349;48.666;8.948;2023-04-03T08:20:01;3.20;;;2.87;;
20379;SDS011;10349;48.666;8.948;2023-04-03T08:22:29;3.87;;;3.13;;
20379;SDS011;10349;48.666;8.948;2023-04-03T08:24:54;3.83;;;3.30;;
20379;SDS011;10349;48.666;8.948;2023-04-03T08:27:20;4.07;;;3.77;;
20379;SDS011;10349;48.666;8.948;2023-04-03T08:29:46;3.40;;;3.10;;
20379;SDS011;10349;48.666;8.948;2023-04-03T08:32:11;3.80;;;3.60;;
20379;SDS011;10349;48.666;8.948;2023-04-03T08:34:37;4.00;;;3.20;;
20379;SDS011;10349;48.666;8.948;2023-04-03T08:37:05;3.10;;;2.90;;
20379;SDS011;10349;48.666;8.948;2023-04-03T08:39:31;4.90;;;3.33;;
20379;SDS011;10349;48.666;8.948;2023-04-03T08:41:57;3.73;;;3.43;;
20379;SDS011;10349;48.666;8.948;2023-04-03T08:49:49;3.50;;;3.20;;
20379;SDS011;10349;48.666;8.948;2023-04-03T08:52:19;3.67;;;3.37;;
20379;SDS011;10349;48.666;8.948;2023-04-03T08:54:57;3.90;;;3.53;;
20379;SDS011;10349;48.666;8.948;2023-04-03T08:57:30;2.67;;;2.53;;
20379;SDS011;10349;48.666;8.948;2023-04-03T09:00:06;3.20;;;3.00;;
20379;SDS011;10349;48.666;8.948;2023-04-03T09:02:41;3.67;;;3.37;;
20379;SDS011;10349;48.666;8.948;2023-04-03T09:05:11;3.47;;;3.27;;
20379;SDS011;10349;48.666;8.948;2023-04-03T09:08:00;3.30;;;3.10;;
20379;SDS011;10349;48.666;8.948;2023-04-03T09:10:33;5.47;;;3.23;;
20379;SDS011;10349;48.666;8.948;2023-04-03T09:13:13;5.40;;;4.10;;
20379;SDS011;10349;48.666;8.948;2023-04-03T09:15:59;3.30;;;3.00;;
20379;SDS011;10349;48.666;8.948;2023-04-03T09:18:30;8.10;;;4.00;;
20379;SDS011;10349;48.666;8.948;2023-04-03T09:24:09;3.90;;;3.40;;
20379;SDS011;10349;48.666;8.948;2023-04-03T09:26:53;3.37;;;3.17;;
20379;SDS011;10349;48.666;8.948;2023-04-03T09:29:25;4.80;;;3.20;;
20379;SDS011;10349;48.666;8.948;2023-04-03T09:32:34;4.03;;;3.80;;
20379;SDS011;10349;48.666;8.948;2023-04-03T09:34:46;3.77;;;3.50;;
20379;SDS011;10349;48.666;8.948;2023-04-03T09:37:32;4.70;;;3.60;;
20379;SDS011;10349;48.666;8.948;2023-04-03T09:40:02;4.63;;;3.23;;
20379;SDS011;10349;48.666;8.948;2023-04-03T09:42:29;6.00;;;4.07;;
20379;SDS011;10349;48.666;8.948;2023-04-03T09:45:01;3.97;;;3.67;;
20379;SDS011;10349;48.666;8.948;2023-04-03T09:47:33;6.50;;;3.40;;
20379;SDS011;10349;48.666;8.948;2023-04-03T09:52:42;3.97;;;3.10;;
20379;SDS011;10349;48.666;8.948;2023-04-03T09:58:20;3.20;;;2.97;;
20379;SDS011;10349;48.666;8.948;2023-04-03T10:00:54;3.63;;;3.33;;
20379;SDS011;10349;48.666;8.948;2023-04-03T10:03:27;3.57;;;3.27;;
20379;SDS011;10349;48.666;8.948;2023-04-03T10:05:57;4.93;;;3.53;;
20379;SDS011;10349;48.666;8.948;2023-04-03T10:08:25;2.90;;;2.70;;
20379;SDS011;10349;48.666;8.948;2023-04-03T10:13:57;3.27;;;2.97;;
20379;SDS011;10349;48.666;8.948;2023-04-03T10:22:02;3.37;;;2.97;;
20379;SDS011;10349;48.666;8.948;2023-04-03T10:30:27;2.90;;;2.70;;
20379;SDS011;10349;48.666;8.948;2023-04-03T10:41:39;3.13;;;2.93;;
20379;SDS011;10349;48.666;8.948;2023-04-03T10:47:32;2.80;;;2.60;;
20379;SDS011;10349;48.666;8.948;2023-04-03T10:56:15;2.70;;;2.50;;
20379;SDS011;10349;48.666;8.948;2023-04-03T10:58:57;4.33;;;2.50;;
20379;SDS011;10349;48.666;8.948;2023-04-03T11:01:24;3.13;;;2.80;;
20379;SDS011;10349;48.666;8.948;2023-04-03T11:03:58;2.90;;;2.70;;
20379;SDS011;10349;48.666;8.948;2023-04-03T11:06:26;4.80;;;3.20;;
20379;SDS011;10349;48.666;8.948;2023-04-03T11:11:46;3.60;;;2.87;;
20379;SDS011;10349;48.666;8.948;2023-04-03T11:16:47;3.33;;;3.13;;
20379;SDS011;10349;48.666;8.948;2023-04-03T11:19:24;8.10;;;2.80;;
20379;SDS011;10349;48.666;8.948;2023-04-03T11:22:08;5.33;;;2.97;;
20379;SDS011;10349;48.666;8.948;2023-04-03T11:24:40;2.73;;;2.53;;
20379;SDS011;10349;48.666;8.948;2023-04-03T11:27:17;2.57;;;2.43;;
20379;SDS011;10349;48.666;8.948;2023-04-03T11:29:47;4.30;;;2.73;;
20379;SDS011;10349;48.666;8.948;2023-04-03T11:34:42;3.27;;;3.07;;
20379;SDS011;10349;48.666;8.948;2023-04-03T11:37:12;5.57;;;3.10;;
20379;SDS011;10349;48.666;8.948;2023-04-03T11:40:02;2.70;;;2.50;;
20379;SDS011;10349;48.666;8.948;2023-04-03T11:47:52;3.20;;;3.00;;
20379;SDS011;10349;48.666;8.948;2023-04-03T11:50:38;2.83;;;2.63;;
20379;SDS011;10349;48.666;8.948;2023-04-03T12:05:50;3.20;;;2.73;;
20379;SDS011;10349;48.666;8.948;2023-04-03T12:16:29;2.43;;;2.23;;
20379;SDS011;10349;48.666;8.948;2023-04-03T12:19:01;2.30;;;2.13;;
20379;SDS011;10349;48.666;8.948;2023-04-03T12:26:50;2.60;;;2.50;;
20379;SDS011;10349;48.666;8.948;2023-04-03T12:34:43;5.30;;;2.50;;
20379;SDS011;10349;48.666;8.948;2023-04-03T12:37:24;2.60;;;2.40;;
20379;SDS011;10349;48.666;8.948;2023-04-03T12:40:24;2.93;;;2.63;;
20379;SDS011;10349;48.666;8.948;2023-04-03T12:48:58;2.33;;;2.20;;
20379;SDS011;10349;48.666;8.948;2023-04-03T12:51:34;2.70;;;2.60;;
20379;SDS011;10349;48.666;8.948;2023-04-03T12:54:15;2.70;;;2.60;;
20379;SDS011;10349;48.666;8.948;2023-04-03T12:56:44;2.50;;;2.30;;
20379;SDS011;10349;48.666;8.948;2023-04-03T12:59:18;3.20;;;2.73;;
20379;SDS011;10349;48.666;8.948;2023-04-03T13:04:24;2.30;;;2.20;;
20379;SDS011;10349;48.666;8.948;2023-04-03T13:06:52;2.20;;;2.10;;
20379;SDS011;10349;48.666;8.948;2023-04-03T13:09:20;2.40;;;2.20;;
20379;SDS011;10349;48.666;8.948;2023-04-03T13:11:46;2.23;;;2.10;;
20379;SDS011;10349;48.666;8.948;2023-04-03T13:14:16;2.80;;;2.60;;
20379;SDS011;10349;48.666;8.948;2023-04-03T13:19:20;2.10;;;2.00;;
20379;SDS011;10349;48.666;8.948;2023-04-03T13:21:47;1.93;;;1.83;;
20379;SDS011;10349;48.666;8.948;2023-04-03T13:24:14;3.17;;;2.33;;
20379;SDS011;10349;48.666;8.948;2023-04-03T13:26:41;3.37;;;3.17;;
20379;SDS011;10349;48.666;8.948;2023-04-03T13:29:19;2.47;;;2.27;;
20379;SDS011;10349;48.666;8.948;2023-04-03T13:31:55;2.77;;;2.53;;
20379;SDS011;10349;48.666;8.948;2023-04-03T13:34:21;6.37;;;2.20;;
20379;SDS011;10349;48.666;8.948;2023-04-03T13:37:00;2.30;;;2.20;;
20379;SDS011;10349;48.666;8.948;2023-04-03T13:39:29;2.27;;;2.17;;
20379;SDS011;10349;48.666;8.948;2023-04-03T13:42:01;5.47;;;2.33;;
20379;SDS011;10349;48.666;8.948;2023-04-03T13:44:40;2.23;;;2.13;;
20379;SDS011;10349;48.666;8.948;2023-04-03T13:47:14;2.10;;;2.00;;
20379;SDS011;10349;48.666;8.948;2023-04-03T13:49:58;3.67;;;2.60;;
20379;SDS011;10349;48.666;8.948;2023-04-03T13:52:41;2.37;;;2.07;;
20379;SDS011;10349;48.666;8.948;2023-04-03T13:55:24;2.60;;;2.40;;
20379;SDS011;10349;48.666;8.948;2023-04-03T14:00:28;2.20;;;2.10;;
20379;SDS011;10349;48.666;8.948;2023-04-03T14:03:11;2.10;;;2.00;;
20379;SDS011;10349;48.666;8.948;2023-04-03T14:05:39;5.70;;;2.60;;
20379;SDS011;10349;48.666;8.948;2023-04-03T14:08:05;2.30;;;2.20;;
20379;SDS011;10349;48.666;8.948;2023-04-03T14:10:32;2.27;;;2.17;;
20379;SDS011;10349;48.666;8.948;2023-04-03T14:12:58;2.90;;;2.70;;
20379;SDS011;10349;48.666;8.948;2023-04-03T14:15:24;2.60;;;2.40;;
20379;SDS011;10349;48.666;8.948;2023-04-03T14:17:53;2.63;;;2.47;;
20379;SDS011;10349;48.666;8.948;2023-04-03T14:20:23;2.93;;;2.10;;
20379;SDS011;10349;48.666;8.948;2023-04-03T14:22:50;6.07;;;2.30;;
20379;SDS011;10349;48.666;8.948;2023-04-03T14:25:17;2.10;;;2.00;;
20379;SDS011;10349;48.666;8.948;2023-04-03T14:27:45;2.80;;;2.30;;
20379;SDS011;10349;48.666;8.948;2023-04-03T14:30:23;2.73;;;2.53;;
20379;SDS011;10349;48.666;8.948;2023-04-03T14:32:54;3.03;;;1.80;;
20379;SDS011;10349;48.666;8.948;2023-04-03T14:35:21;2.07;;;1.97;;
20379;SDS011;10349;48.666;8.948;2023-04-03T14:37:47;2.57;;;2.33;;
20379;SDS011;10349;48.666;8.948;2023-04-03T14:40:19;3.67;;;2.70;;
20379;SDS011;10349;48.666;8.948;2023-04-03T14:42:48;2.70;;;2.13;;
20379;SDS011;10349;48.666;8.948;2023-04-03T14:45:14;2.53;;;2.33;;
20379;SDS011;10349;48.666;8.948;2023-04-03T14:47:46;2.27;;;2.17;;
20379;SDS011;10349;48.666;8.948;2023-04-03T14:50:15;2.93;;;2.60;;
20379;SDS011;10349;48.666;8.948;2023-04-03T14:52:46;2.70;;;2.50;;
20379;SDS011;10349;48.666;8.948;2023-04-03T14:55:17;3.07;;;2.77;;
20379;SDS011;10349;48.666;8.948;2023-04-03T14:57:44;5.70;;;2.10;;
20379;SDS011;10349;48.666;8.948;2023-04-03T15:00:15;3.10;;;2.67;;
20379;SDS011;10349;48.666;8.948;2023-04-03T15:02:42;2.23;;;1.83;;
20379;SDS011;10349;48.666;8.948;2023-04-03T15:05:09;4.50;;;2.27;;
20379;SDS011;10349;48.666;8.948;2023-04-03T15:07:43;2.67;;;2.47;;
20379;SDS011;10349;48.666;8.948;2023-04-03T15:12:39;1.93;;;1.83;;
20379;SDS011;10349;48.666;8.948;2023-04-03T15:15:05;6.10;;;2.10;;
20379;SDS011;10349;48.666;8.948;2023-04-03T15:17:31;2.13;;;2.03;;
20379;SDS011;10349;48.666;8.948;2023-04-03T15:19:58;2.50;;;2.30;;
20379;SDS011;10349;48.666;8.948;2023-04-03T15:22:24;2.63;;;2.43;;
20379;SDS011;10349;48.666;8.948;2023-04-03T15:24:50;1.80;;;1.70;;
20379;SDS011;10349;48.666;8.948;2023-04-03T15:27:16;2.87;;;1.90;;
20379;SDS011;10349;48.666;8.948;2023-04-03T15:29:42;3.90;;;2.87;;
20379;SDS011;10349;48.666;8.948;2023-04-03T15:32:08;3.70;;;2.90;;
20379;SDS011;10349;48.666;8.948;2023-04-03T15:34:35;2.73;;;2.53;;
20379;SDS011;10349;48.666;8.948;2023-04-03T15:37:02;2.63;;;2.40;;
20379;SDS011;10349;48.666;8.948;2023-04-03T15:39:27;2.53;;;2.33;;
20379;SDS011;10349;48.666;8.948;2023-04-03T15:41:53;2.90;;;2.23;;
20379;SDS011;10349;48.666;8.948;2023-04-03T15:44:20;2.33;;;2.17;;
20379;SDS011;10349;48.666;8.948;2023-04-03T15:46:47;2.63;;;2.43;;
20379;SDS011;10349;48.666;8.948;2023-04-03T15:49:16;3.13;;;2.47;;
20379;SDS011;10349;48.666;8.948;2023-04-03T15:51:46;5.30;;;2.17;;
20379;SDS011;10349;48.666;8.948;2023-04-03T15:54:11;2.60;;;2.40;;
20379;SDS011;10349;48.666;8.948;2023-04-03T15:56:38;2.60;;;2.40;;
20379;SDS011;10349;48.666;8.948;2023-04-03T15:59:03;2.67;;;2.20;;
20379;SDS011;10349;48.666;8.948;2023-04-03T16:01:29;2.63;;;2.43;;
20379;SDS011;10349;48.666;8.948;2023-04-03T16:03:56;2.37;;;2.17;;
20379;SDS011;10349;48.666;8.948;2023-04-03T16:06:22;2.90;;;2.00;;
20379;SDS011;10349;48.666;8.948;2023-04-03T16:08:51;2.33;;;2.23;;
20379;SDS011;10349;48.666;8.948;2023-04-03T16:11:16;2.53;;;2.23;;
20379;SDS011;10349;48.666;8.948;2023-04-03T16:13:42;1.93;;;1.83;;
20379;SDS011;10349;48.666;8.948;2023-04-03T16:16:08;2.33;;;1.80;;
20379;SDS011;10349;48.666;8.948;2023-04-03T16:18:35;2.50;;;2.40;;
20379;SDS011;10349;48.666;8.948;2023-04-03T16:21:01;3.33;;;2.50;;
20379;SDS011;10349;48.666;8.948;2023-04-03T16:23:26;2.90;;;2.57;;
20379;SDS011;10349;48.666;8.948;2023-04-03T16:25:52;2.60;;;2.40;;
20379;SDS011;10349;48.666;8.948;2023-04-03T16:28:19;2.10;;;2.00;;
20379;SDS011;10349;48.666;8.948;2023-04-03T16:30:45;2.27;;;2.17;;
20379;SDS011;10349;48.666;8.948;2023-04-03T16:33:13;2.70;;;2.17;;
20379;SDS011;10349;48.666;8.948;2023-04-03T16:35:39;2.13;;;1.90;;
20379;SDS011;10349;48.666;8.948;2023-04-03T16:38:07;2.23;;;2.00;;
20379;SDS011;10349;48.666;8.948;2023-04-03T16:40:33;2.07;;;1.93;;
20379;SDS011;10349;48.666;8.948;2023-04-03T16:43:00;3.97;;;3.00;;
20379;SDS011;10349;48.666;8.948;2023-04-03T16:45:26;2.37;;;1.87;;
20379;SDS011;10349;48.666;8.948;2023-04-03T16:47:52;4.50;;;2.70;;
20379;SDS011;10349;48.666;8.948;2023-04-03T16:50:18;2.23;;;2.13;;
20379;SDS011;10349;48.666;8.948;2023-04-03T16:52:45;2.70;;;2.50;;
20379;SDS011;10349;48.666;8.948;2023-04-03T16:55:11;3.70;;;2.50;;